createdAt,value
2023-03-04T00:00:37.575Z,6.20
2023-03-04T00:03:07.379Z,5.78
2023-03-04T00:05:35.874Z,6.55
2023-03-04T00:08:04.956Z,6.32
2023-03-04T00:10:33.530Z,6.63
2023-03-04T00:13:01.977Z,6.72
2023-03-04T00:15:31.894Z,7.38
2023-03-04T00:18:00.335Z,5.88
2023-03-04T00:20:28.856Z,6.15
2023-03-04T00:22:57.292Z,5.47
2023-03-04T00:25:25.747Z,5.47
2023-03-04T00:27:54.254Z,6.20
2023-03-04T00:30:22.810Z,6.40
2023-03-04T00:32:52.722Z,7.35
2023-03-04T00:35:21.207Z,4.90
2023-03-04T00:37:49.729Z,4.53
2023-03-04T00:40:18.481Z,8.07
2023-03-04T00:42:47.068Z,8.00
2023-03-04T00:45:15.644Z,5.43
2023-03-04T00:47:44.167Z,8.15
2023-03-04T00:50:14.498Z,5.82
2023-03-04T00:52:43.000Z,7.00
2023-03-04T00:55:11.699Z,6.60
2023-03-04T00:57:41.176Z,5.60
2023-03-04T01:00:10.851Z,8.20
2023-03-04T01:02:39.270Z,6.88
2023-03-04T01:05:09.188Z,5.40
2023-03-04T01:07:39.181Z,6.13
2023-03-04T01:10:09.353Z,4.93
2023-03-04T01:12:37.850Z,4.78
2023-03-04T01:15:06.908Z,7.60
2023-03-04T01:17:35.513Z,8.27
2023-03-04T01:20:04.671Z,5.68
2023-03-04T01:22:33.256Z,6.57
2023-03-04T01:25:03.423Z,8.00
2023-03-04T01:27:31.996Z,6.13
2023-03-04T01:30:00.479Z,5.90
2023-03-04T01:32:32.623Z,5.60
2023-03-04T01:35:01.129Z,7.75
2023-03-04T01:37:31.347Z,6.35
2023-03-04T01:39:59.827Z,6.20
2023-03-04T01:42:33.741Z,7.00
2023-03-04T01:47:34.292Z,4.85
2023-03-04T01:50:08.505Z,6.38
2023-03-04T01:52:37.101Z,6.13
2023-03-04T01:55:13.376Z,7.07
2023-03-04T01:57:43.329Z,7.72
2023-03-04T02:00:26.303Z,7.03
2023-03-04T02:02:58.741Z,8.85
2023-03-04T02:05:27.984Z,5.95
2023-03-04T02:07:58.476Z,8.00
2023-03-04T02:10:27.280Z,7.00
2023-03-04T02:12:57.496Z,6.10
2023-03-04T02:15:26.811Z,5.32
2023-03-04T02:17:55.710Z,6.45
2023-03-04T02:20:36.461Z,8.05
2023-03-04T02:23:10.759Z,6.80
2023-03-04T02:25:44.547Z,9.10
2023-03-04T02:30:43.551Z,6.85
2023-03-04T02:33:17.243Z,7.32
2023-03-04T02:35:46.216Z,7.80
2023-03-04T02:38:14.979Z,11.23
2023-03-04T02:40:48.050Z,9.02
2023-03-04T02:43:18.086Z,7.97
2023-03-04T02:45:49.988Z,8.10
2023-03-04T02:48:21.055Z,8.93
2023-03-04T02:50:51.685Z,8.82
2023-03-04T02:53:20.896Z,9.07
2023-03-04T02:55:50.492Z,8.98
2023-03-04T02:58:22.410Z,11.30
2023-03-04T03:00:51.123Z,11.65
2023-03-04T03:03:20.294Z,10.45
2023-03-04T03:05:49.067Z,26.10
2023-03-04T03:08:20.615Z,52.00
2023-03-04T03:10:49.132Z,11.18
2023-03-04T03:13:19.379Z,10.02
2023-03-04T03:15:50.195Z,13.82
2023-03-04T03:18:19.017Z,9.73
2023-03-04T03:20:47.730Z,12.85
2023-03-04T03:23:18.187Z,11.80
2023-03-04T03:25:46.689Z,12.93
2023-03-04T03:28:15.139Z,11.75
2023-03-04T03:30:43.704Z,14.88
2023-03-04T03:33:13.618Z,14.10
2023-03-04T03:35:42.542Z,11.50
2023-03-04T03:38:11.104Z,11.60
2023-03-04T03:40:39.609Z,11.85
2023-03-04T03:43:08.156Z,15.18
2023-03-04T03:45:36.781Z,13.02
2023-03-04T03:48:05.995Z,13.05
2023-03-04T03:50:36.009Z,30.58
2023-03-04T03:53:04.996Z,17.83
2023-03-04T03:55:33.503Z,15.15
2023-03-04T03:58:02.073Z,16.00
2023-03-04T04:00:30.713Z,12.82
2023-03-04T04:03:01.264Z,12.20
2023-03-04T04:05:29.904Z,10.40
2023-03-04T04:07:59.783Z,11.50
2023-03-04T04:10:28.266Z,10.40
2023-03-04T04:12:56.692Z,10.63
2023-03-04T04:15:25.138Z,11.65
2023-03-04T04:17:53.578Z,9.25
2023-03-04T04:20:23.337Z,11.93
2023-03-04T04:22:52.818Z,11.20
2023-03-04T04:25:22.702Z,13.15
2023-03-04T04:27:51.148Z,11.95
2023-03-04T04:30:19.729Z,10.30
2023-03-04T04:32:48.278Z,10.38
2023-03-04T04:35:16.804Z,10.25
2023-03-04T04:37:45.912Z,8.98
2023-03-04T04:40:14.983Z,10.50
2023-03-04T04:42:44.844Z,8.40
2023-03-04T04:45:13.362Z,10.32
2023-03-04T04:47:41.839Z,9.93
2023-03-04T04:50:11.576Z,10.95
2023-03-04T04:52:40.050Z,11.50
2023-03-04T04:55:09.863Z,9.43
2023-03-04T04:57:38.499Z,10.77
2023-03-04T05:00:10.250Z,7.95
2023-03-04T05:02:38.980Z,9.25
2023-03-04T05:05:08.444Z,9.32
2023-03-04T05:07:36.943Z,11.00
2023-03-04T05:10:06.220Z,12.60
2023-03-04T05:12:34.727Z,10.07
2023-03-04T05:15:05.301Z,10.07
2023-03-04T05:17:35.213Z,9.68
2023-03-04T05:20:04.484Z,9.27
2023-03-04T05:22:32.991Z,7.68
2023-03-04T05:25:03.371Z,9.77
2023-03-04T05:27:32.206Z,8.63
2023-03-04T05:30:01.123Z,8.02
2023-03-04T05:32:32.022Z,6.53
2023-03-04T05:35:02.007Z,8.60
2023-03-04T05:37:32.286Z,9.18
2023-03-04T05:40:00.761Z,8.05
2023-03-04T05:42:29.214Z,6.68
2023-03-04T05:44:57.753Z,9.23
2023-03-04T05:47:26.204Z,12.60
2023-03-04T05:49:54.708Z,7.63
2023-03-04T05:52:24.551Z,9.00
2023-03-04T05:54:53.074Z,8.48
2023-03-04T05:57:22.885Z,9.73
2023-03-04T05:59:51.749Z,6.30
2023-03-04T06:02:20.311Z,8.30
2023-03-04T06:04:48.828Z,8.63
2023-03-04T06:07:17.329Z,9.80
2023-03-04T06:09:47.248Z,7.35
2023-03-04T06:12:15.738Z,6.93
2023-03-04T06:14:44.250Z,10.27
2023-03-04T06:17:12.879Z,6.45
2023-03-04T06:19:41.973Z,7.47
2023-03-04T06:22:11.299Z,7.15
2023-03-04T06:24:39.888Z,6.93
2023-03-04T06:27:09.765Z,9.20
2023-03-04T06:29:38.209Z,9.10
2023-03-04T06:32:07.057Z,7.70
2023-03-04T06:34:36.372Z,7.45
2023-03-04T06:37:05.182Z,8.38
2023-03-04T06:39:33.901Z,7.50
2023-03-04T06:42:02.404Z,8.43
2023-03-04T06:44:32.429Z,8.38
2023-03-04T06:47:00.940Z,11.40
2023-03-04T06:49:29.471Z,9.25
2023-03-04T06:51:57.944Z,9.15
2023-03-04T06:54:26.508Z,10.15
2023-03-04T06:56:55.153Z,8.52
2023-03-04T06:59:23.640Z,8.93
2023-03-04T07:01:53.488Z,8.07
2023-03-04T07:04:23.016Z,5.82
2023-03-04T07:06:52.080Z,7.05
2023-03-04T07:09:20.542Z,6.72
2023-03-04T07:11:49.040Z,8.38
2023-03-04T07:14:17.498Z,6.47
2023-03-04T07:16:45.986Z,7.18
2023-03-04T07:19:16.633Z,12.13
2023-03-04T07:21:45.298Z,7.57
2023-03-04T07:24:14.034Z,8.50
2023-03-04T07:26:42.509Z,9.55
2023-03-04T07:29:11.069Z,6.38
2023-03-04T07:31:39.561Z,11.15
2023-03-04T07:34:11.478Z,6.28
2023-03-04T07:36:41.864Z,7.10
2023-03-04T07:39:11.402Z,8.63
2023-03-04T07:41:40.520Z,7.30
2023-03-04T07:44:12.166Z,4.43
2023-03-04T07:46:41.986Z,5.68
2023-03-04T07:49:10.444Z,6.45
2023-03-04T07:51:40.365Z,8.48
2023-03-04T07:54:08.828Z,7.57
2023-03-04T07:56:37.408Z,9.50
2023-03-04T07:59:05.839Z,7.53
2023-03-04T08:01:36.131Z,11.02
2023-03-04T08:04:06.167Z,8.38
2023-03-04T08:06:35.419Z,11.05
2023-03-04T08:09:08.092Z,7.82
2023-03-04T08:11:38.448Z,6.65
2023-03-04T08:14:07.238Z,6.55
2023-03-04T08:16:35.737Z,6.95
2023-03-04T08:19:05.588Z,6.47
2023-03-04T08:21:34.890Z,5.75
2023-03-04T08:24:08.904Z,9.93
2023-03-04T08:26:42.130Z,10.05
2023-03-04T08:29:12.864Z,7.60
2023-03-04T08:31:41.599Z,5.95
2023-03-04T08:34:11.632Z,8.48
2023-03-04T08:36:40.440Z,7.68
2023-03-04T08:39:13.060Z,7.53
2023-03-04T08:41:41.813Z,6.18
2023-03-04T08:44:11.117Z,7.93
2023-03-04T08:46:41.148Z,7.85
2023-03-04T08:49:10.132Z,7.43
2023-03-04T08:51:38.632Z,8.45
2023-03-04T08:54:09.709Z,6.15
2023-03-04T08:56:38.228Z,6.38
2023-03-04T08:59:06.684Z,12.90
2023-03-04T09:01:35.423Z,6.40
2023-03-04T09:04:03.987Z,8.88
2023-03-04T09:06:32.729Z,10.07
2023-03-04T09:09:01.465Z,8.82
2023-03-04T09:11:35.594Z,7.90
2023-03-04T09:14:04.387Z,7.68
2023-03-04T09:16:33.124Z,7.78
2023-03-04T09:19:02.465Z,7.88
2023-03-04T09:21:31.245Z,6.88
2023-03-04T09:24:00.052Z,7.30
2023-03-04T09:26:30.321Z,6.72
2023-03-04T09:29:04.561Z,6.53
2023-03-04T09:31:33.210Z,8.45
2023-03-04T09:34:02.303Z,5.22
2023-03-04T09:36:31.044Z,4.07
2023-03-04T09:39:01.966Z,5.65
2023-03-04T09:41:38.332Z,6.53
2023-03-04T09:44:22.472Z,9.05
2023-03-04T09:46:52.926Z,7.45
2023-03-04T09:49:23.850Z,7.68
2023-03-04T09:51:58.616Z,7.93
2023-03-04T09:54:56.659Z,7.38
2023-03-04T09:57:31.695Z,7.00
2023-03-04T10:00:13.889Z,8.55
2023-03-04T10:02:51.995Z,6.50
2023-03-04T10:05:23.332Z,6.25
2023-03-04T10:07:58.190Z,7.40
2023-03-04T10:10:30.775Z,6.20
2023-03-04T10:13:01.555Z,7.85
2023-03-04T10:15:36.948Z,9.05
2023-03-04T10:18:13.738Z,7.85
2023-03-04T10:20:53.169Z,7.03
2023-03-04T10:23:26.252Z,8.13
2023-03-04T10:25:55.673Z,7.55
2023-03-04T10:28:27.216Z,7.47
2023-03-04T10:31:03.363Z,6.05
2023-03-04T10:33:35.289Z,5.65
2023-03-04T10:36:06.338Z,7.53
2023-03-04T10:38:37.008Z,6.18
2023-03-04T10:41:14.586Z,6.05
2023-03-04T10:43:45.427Z,4.63
2023-03-04T10:46:17.367Z,7.07
2023-03-04T10:48:47.270Z,4.85
2023-03-04T10:51:21.843Z,6.95
2023-03-04T10:53:54.538Z,5.57
2023-03-04T10:56:38.375Z,4.25
2023-03-04T10:59:32.230Z,5.65
2023-03-04T11:02:03.460Z,5.45
2023-03-04T11:04:35.931Z,4.78
2023-03-04T11:07:10.231Z,4.68
2023-03-04T11:09:40.805Z,4.63
2023-03-04T11:12:14.170Z,4.07
2023-03-04T11:14:49.377Z,6.63
2023-03-04T11:17:25.389Z,5.03
2023-03-04T11:20:04.393Z,6.25
2023-03-04T11:22:33.928Z,7.03
2023-03-04T11:25:07.660Z,4.93
2023-03-04T11:27:45.953Z,5.93
2023-03-04T11:30:38.480Z,5.43
2023-03-04T11:33:29.332Z,6.30
2023-03-04T11:36:11.094Z,6.05
2023-03-04T11:38:42.861Z,6.93
2023-03-04T11:41:16.654Z,9.35
2023-03-04T11:43:48.020Z,7.40
2023-03-04T11:46:55.235Z,6.65
2023-03-04T11:49:49.121Z,6.80
2023-03-04T11:52:30.953Z,8.25
2023-03-04T11:55:14.071Z,6.97
2023-03-04T11:57:52.207Z,5.82
2023-03-04T12:00:32.975Z,5.15
2023-03-04T12:03:27.438Z,4.68
2023-03-04T12:06:04.665Z,6.95
2023-03-04T12:08:53.563Z,6.55
2023-03-04T12:11:35.108Z,7.13
2023-03-04T12:14:27.550Z,5.65
2023-03-04T12:17:13.146Z,6.43
2023-03-04T12:19:57.693Z,7.57
2023-03-04T12:22:36.010Z,5.70
2023-03-04T12:25:34.622Z,8.05
2023-03-04T12:28:16.196Z,7.55
2023-03-04T12:31:01.010Z,6.82
2023-03-04T12:33:42.634Z,8.45
2023-03-04T12:36:19.470Z,13.05
2023-03-04T12:39:02.449Z,7.22
2023-03-04T12:41:43.527Z,4.60
2023-03-04T12:44:18.220Z,7.63
2023-03-04T12:47:11.817Z,7.45
2023-03-04T12:50:01.929Z,7.65
2023-03-04T12:52:45.318Z,8.63
2023-03-04T12:55:18.608Z,6.65
2023-03-04T12:57:52.908Z,5.57
2023-03-04T13:00:32.777Z,5.63
2023-03-04T13:03:15.583Z,7.80
2023-03-04T13:05:58.454Z,10.65
2023-03-04T13:08:34.843Z,8.38
2023-03-04T13:11:28.460Z,7.05
2023-03-04T13:14:04.110Z,6.82
2023-03-04T13:16:35.897Z,6.05
2023-03-04T13:19:25.669Z,6.10
2023-03-04T13:21:55.258Z,8.10
2023-03-04T13:24:46.498Z,5.95
2023-03-04T13:27:50.208Z,6.43
2023-03-04T13:30:59.672Z,7.25
2023-03-04T13:34:02.175Z,6.90
2023-03-04T13:36:52.978Z,8.18
2023-03-04T13:39:30.309Z,5.78
2023-03-04T13:41:59.472Z,5.25
2023-03-04T13:44:58.664Z,6.53
2023-03-04T13:47:45.908Z,6.43
2023-03-04T13:50:26.203Z,7.15
2023-03-04T13:52:55.806Z,6.68
2023-03-04T13:55:40.458Z,6.22
2023-03-04T13:58:20.577Z,7.25
2023-03-04T14:00:53.679Z,6.40
2023-03-04T14:03:25.724Z,5.97
2023-03-04T14:06:17.967Z,8.13
2023-03-04T14:08:49.621Z,7.03
2023-03-04T14:11:30.021Z,7.75
2023-03-04T14:13:59.590Z,7.95
2023-03-04T14:16:30.987Z,7.40
2023-03-04T14:19:04.493Z,8.35
2023-03-04T14:21:34.039Z,6.38
2023-03-04T14:24:06.834Z,5.35
2023-03-04T14:26:35.968Z,8.60
2023-03-04T14:29:04.984Z,7.03
2023-03-04T14:31:38.488Z,7.60
2023-03-04T14:34:07.233Z,7.03
2023-03-04T14:36:38.602Z,7.45
2023-03-04T14:39:08.668Z,6.82
2023-03-04T14:41:40.045Z,7.78
2023-03-04T14:44:16.238Z,8.20
2023-03-04T14:47:05.943Z,6.45
2023-03-04T14:49:37.732Z,7.55
2023-03-04T14:52:07.551Z,8.80
2023-03-04T14:54:38.784Z,7.20
2023-03-04T14:57:25.180Z,8.43
2023-03-04T14:59:54.256Z,7.40
2023-03-04T15:02:31.614Z,6.55
2023-03-04T15:05:05.144Z,7.25
2023-03-04T15:07:38.648Z,10.57
2023-03-04T15:10:12.613Z,11.77
2023-03-04T15:12:41.727Z,11.02
2023-03-04T15:15:40.056Z,18.35
2023-03-04T15:18:26.482Z,25.23
2023-03-04T15:21:00.157Z,19.95
2023-03-04T15:23:30.520Z,13.60
2023-03-04T15:26:01.881Z,13.88
2023-03-04T15:28:35.441Z,12.75
2023-03-04T15:31:04.025Z,11.25
2023-03-04T15:33:34.413Z,7.65
2023-03-04T15:36:04.636Z,11.30
2023-03-04T15:38:33.674Z,8.35
2023-03-04T15:41:03.288Z,8.77
2023-03-04T15:43:32.046Z,10.93
2023-03-04T15:46:01.266Z,10.13
2023-03-04T15:48:31.032Z,10.38
2023-03-04T15:51:03.368Z,9.90
2023-03-04T15:53:35.435Z,11.60
2023-03-04T15:56:06.499Z,10.85
2023-03-04T15:58:35.578Z,9.40
2023-03-04T16:01:04.959Z,9.07
2023-03-04T16:03:34.433Z,9.55
2023-03-04T16:06:04.592Z,11.35
2023-03-04T16:08:33.339Z,10.02
2023-03-04T16:11:02.071Z,11.48
2023-03-04T16:13:30.728Z,11.55
2023-03-04T16:15:59.439Z,10.90
2023-03-04T16:18:28.181Z,10.50
2023-03-04T16:20:56.844Z,10.35
2023-03-04T16:23:26.919Z,12.52
2023-03-04T16:25:58.027Z,12.77
2023-03-04T16:28:26.695Z,13.60
2023-03-04T16:30:55.521Z,11.82
2023-03-04T16:33:24.230Z,13.55
2023-03-04T16:35:52.997Z,12.98
2023-03-04T16:38:26.245Z,14.02
2023-03-04T16:40:57.765Z,11.38
2023-03-04T16:43:26.664Z,12.60
2023-03-04T16:45:55.709Z,12.90
2023-03-04T16:48:24.637Z,14.82
2023-03-04T16:50:53.274Z,14.57
2023-03-04T16:53:33.015Z,12.63
2023-03-04T16:56:06.968Z,14.60
2023-03-04T16:58:36.835Z,13.25
2023-03-04T17:01:06.445Z,13.07
2023-03-04T17:03:35.095Z,17.13
2023-03-04T17:06:03.842Z,14.15
2023-03-04T17:08:32.625Z,13.32
2023-03-04T17:11:03.280Z,11.65
2023-03-04T17:13:32.217Z,12.88
2023-03-04T17:16:03.011Z,10.93
2023-03-04T17:18:32.329Z,12.68
2023-03-04T17:21:06.336Z,8.77
2023-03-04T17:23:39.332Z,10.45
2023-03-04T17:26:11.304Z,9.57
2023-03-04T17:28:41.188Z,10.85
2023-03-04T17:31:14.108Z,11.40
2023-03-04T17:33:44.007Z,12.15
2023-03-04T17:36:13.294Z,8.80
2023-03-04T17:38:41.988Z,8.40
2023-03-04T17:41:18.348Z,10.88
2023-03-04T17:43:48.579Z,9.15
2023-03-04T17:46:19.103Z,7.93
2023-03-04T17:48:47.919Z,9.90
2023-03-04T17:51:16.590Z,7.13
2023-03-04T17:53:45.171Z,6.07
2023-03-04T17:56:15.023Z,6.53
2023-03-04T17:58:43.610Z,5.30
2023-03-04T18:01:19.435Z,6.00
2023-03-04T18:03:48.892Z,7.65
2023-03-04T18:06:18.482Z,5.28
2023-03-04T18:08:49.503Z,4.30
2023-03-04T18:11:20.360Z,4.75
2023-03-04T18:13:49.496Z,6.53
2023-03-04T18:16:23.460Z,5.45
2023-03-04T18:18:52.629Z,4.72
2023-03-04T18:21:22.548Z,4.13
2023-03-04T18:23:51.125Z,4.10
2023-03-04T18:26:23.448Z,3.78
2023-03-04T18:28:52.491Z,6.03
2023-03-04T18:31:21.321Z,4.20
2023-03-04T18:33:50.164Z,4.75
2023-03-04T18:36:18.887Z,5.50
2023-03-04T18:38:47.408Z,3.92
2023-03-04T18:41:17.435Z,3.28
2023-03-04T18:43:47.303Z,7.53
2023-03-04T18:46:29.888Z,5.80
2023-03-04T18:49:02.486Z,5.30
2023-03-04T18:51:31.796Z,3.47
2023-03-04T18:54:00.352Z,4.00
2023-03-04T18:56:37.808Z,4.50
2023-03-04T18:59:14.457Z,3.17
2023-03-04T19:01:43.191Z,5.15
2023-03-04T19:04:13.255Z,3.45
2023-03-04T19:06:42.237Z,3.63
2023-03-04T19:09:10.842Z,7.68
2023-03-04T19:11:39.330Z,3.72
2023-03-04T19:14:09.245Z,3.53
2023-03-04T19:16:37.768Z,4.45
2023-03-04T19:19:06.261Z,3.83
2023-03-04T19:21:39.389Z,3.22
2023-03-04T19:24:08.516Z,4.85
2023-03-04T19:26:37.031Z,3.92
2023-03-04T19:29:07.410Z,3.00
2023-03-04T19:31:41.520Z,2.72
2023-03-04T19:34:10.204Z,4.68
2023-03-04T19:36:38.739Z,4.25
2023-03-04T19:39:07.850Z,2.67
2023-03-04T19:41:36.410Z,3.53
2023-03-04T19:44:04.922Z,2.85
2023-03-04T19:46:33.510Z,2.42
2023-03-04T19:49:05.826Z,2.17
2023-03-04T19:51:34.374Z,2.35
2023-03-04T19:54:03.191Z,2.60
2023-03-04T19:56:32.658Z,3.35
2023-03-04T19:59:02.597Z,3.33
2023-03-04T20:01:33.504Z,2.85
2023-03-04T20:04:05.524Z,4.75
2023-03-04T20:06:37.379Z,4.65
2023-03-04T20:09:06.249Z,2.85
2023-03-04T20:11:41.497Z,1.90
2023-03-04T20:14:19.540Z,4.40
2023-03-04T20:16:48.216Z,2.90
2023-03-04T20:19:18.112Z,2.15
2023-03-04T20:21:46.568Z,2.90
2023-03-04T20:24:15.302Z,2.42
2023-03-04T20:26:43.768Z,2.78
2023-03-04T20:29:12.212Z,3.67
2023-03-04T20:31:40.731Z,2.70
2023-03-04T20:34:10.247Z,2.15
2023-03-04T20:36:40.529Z,2.65
2023-03-04T20:39:27.095Z,2.08
2023-03-04T20:41:57.162Z,4.68
2023-03-04T20:44:27.286Z,3.10
2023-03-04T20:46:55.703Z,2.47
2023-03-04T20:49:26.147Z,2.60
2023-03-04T20:52:00.319Z,2.58
2023-03-04T20:54:28.755Z,3.05
2023-03-04T20:56:57.324Z,2.03
2023-03-04T20:59:25.867Z,3.35
2023-03-04T21:01:54.611Z,2.35
2023-03-04T21:04:24.376Z,4.38
2023-03-04T21:06:53.713Z,2.60
2023-03-04T21:09:24.819Z,2.10
2023-03-04T21:11:53.367Z,6.45
2023-03-04T21:14:23.932Z,2.35
2023-03-04T21:16:54.621Z,1.42
2023-03-04T21:19:24.897Z,2.38
2023-03-04T21:21:53.526Z,1.70
2023-03-04T21:24:25.005Z,2.22
2023-03-04T21:26:53.726Z,1.80
2023-03-04T21:29:24.176Z,1.88
2023-03-04T21:31:55.023Z,2.90
2023-03-04T21:34:26.898Z,2.50
2023-03-04T21:36:55.656Z,1.50
2023-03-04T21:39:26.073Z,1.90
2023-03-04T21:41:56.350Z,2.22
2023-03-04T21:44:38.643Z,4.50
2023-03-04T21:47:16.760Z,2.40
2023-03-04T21:49:45.254Z,1.45
2023-03-04T21:52:14.046Z,1.77
2023-03-04T21:54:44.018Z,2.25
2023-03-04T21:57:13.527Z,2.03
2023-03-04T21:59:42.335Z,1.75
2023-03-04T22:02:15.762Z,1.55
2023-03-04T22:04:44.249Z,1.63
2023-03-04T22:07:12.998Z,1.70
2023-03-04T22:09:41.469Z,1.35
2023-03-04T22:12:11.359Z,3.08
2023-03-04T22:14:40.156Z,1.70
2023-03-04T22:17:08.712Z,2.17
2023-03-04T22:19:37.279Z,2.88
2023-03-04T22:22:06.566Z,1.55
2023-03-04T22:24:35.158Z,2.45
2023-03-04T22:27:03.616Z,2.15
2023-03-04T22:29:33.506Z,2.92
2023-03-04T22:32:02.326Z,2.95
2023-03-04T22:34:30.946Z,1.92
2023-03-04T22:36:59.357Z,2.17
2023-03-04T22:39:28.169Z,4.35
2023-03-04T22:41:56.759Z,2.08
2023-03-04T22:44:25.565Z,1.73
2023-03-04T22:46:55.419Z,2.72
2023-03-04T22:49:23.879Z,3.00
2023-03-04T22:51:53.043Z,1.67
2023-03-04T22:54:21.685Z,2.63
2023-03-04T22:56:50.308Z,13.27
2023-03-04T22:59:18.791Z,2.75
2023-03-04T23:01:47.196Z,2.75
2023-03-04T23:04:17.066Z,2.90
2023-03-04T23:06:45.511Z,2.13
2023-03-04T23:09:13.954Z,2.47
2023-03-04T23:11:42.659Z,3.35
2023-03-04T23:14:12.304Z,3.45
2023-03-04T23:16:43.416Z,3.50
2023-03-04T23:19:14.123Z,1.95
2023-03-04T23:21:44.711Z,1.70
2023-03-04T23:24:13.910Z,2.53
2023-03-04T23:26:43.554Z,2.20
2023-03-04T23:29:15.106Z,2.58
2023-03-04T23:31:44.481Z,1.98
2023-03-04T23:34:13.207Z,2.75
2023-03-04T23:36:41.780Z,3.13
2023-03-04T23:39:13.502Z,2.28
2023-03-04T23:41:41.987Z,2.67
2023-03-04T23:44:12.430Z,2.00
2023-03-04T23:46:41.219Z,2.40
2023-03-04T23:49:12.691Z,2.10
2023-03-04T23:51:44.435Z,2.22
2023-03-04T23:54:15.166Z,3.05
2023-03-04T23:56:43.835Z,2.72
2023-03-04T23:59:13.168Z,3.22
